createdAt,value
2017-10-27T00:01:28.062Z,23.33
2017-10-27T00:03:54.776Z,23.33
2017-10-27T00:06:20.520Z,23.31
2017-10-27T00:08:46.290Z,23.29
2017-10-27T00:11:12.897Z,23.29
2017-10-27T00:13:39.597Z,23.31
2017-10-27T00:16:05.407Z,23.26
2017-10-27T00:18:31.619Z,23.22
2017-10-27T00:20:57.371Z,23.29
2017-10-27T00:23:23.106Z,23.34
2017-10-27T00:25:48.852Z,23.36
2017-10-27T00:28:14.587Z,23.28
2017-10-27T00:30:41.293Z,23.31
2017-10-27T00:33:07.040Z,23.25
2017-10-27T00:35:32.829Z,23.25
2017-10-27T00:37:58.575Z,23.27
2017-10-27T00:40:25.200Z,23.29
2017-10-27T00:42:50.940Z,23.32
2017-10-27T00:45:17.654Z,23.29
2017-10-27T00:47:44.425Z,23.23
2017-10-27T00:50:10.171Z,23.30
2017-10-27T00:52:36.005Z,23.26
2017-10-27T00:55:01.761Z,23.15
2017-10-27T00:57:27.508Z,23.24
2017-10-27T00:59:54.283Z,23.20
2017-10-27T01:02:21.072Z,23.25
2017-10-27T01:04:47.772Z,23.16
2017-10-27T01:07:13.511Z,23.22
2017-10-27T01:09:40.500Z,23.27
2017-10-27T01:12:06.239Z,23.23
2017-10-27T01:14:32.951Z,23.16
2017-10-27T01:16:58.696Z,23.23
2017-10-27T01:19:25.274Z,23.26
2017-10-27T01:21:51.861Z,23.30
2017-10-27T01:24:17.611Z,23.22
2017-10-27T01:26:44.128Z,23.23
2017-10-27T01:29:09.879Z,23.21
2017-10-27T01:31:36.506Z,23.29
2017-10-27T01:34:02.262Z,23.13
2017-10-27T01:36:29.046Z,23.21
2017-10-27T01:38:54.834Z,23.15
2017-10-27T01:41:21.190Z,23.24
2017-10-27T01:43:46.933Z,23.25
2017-10-27T01:46:12.683Z,23.32
2017-10-27T01:48:38.688Z,23.32
2017-10-27T01:51:05.277Z,23.33
2017-10-27T01:53:31.150Z,23.20
2017-10-27T01:55:56.914Z,23.24
2017-10-27T01:58:22.683Z,23.23
2017-10-27T02:00:48.563Z,23.16
2017-10-27T02:05:45.849Z,23.18
2017-10-27T02:08:11.627Z,23.18
2017-10-27T02:10:37.397Z,23.18
2017-10-27T02:13:03.182Z,23.15
2017-10-27T02:15:28.924Z,23.22
2017-10-27T02:17:54.743Z,23.26
2017-10-27T02:20:20.491Z,23.15
2017-10-27T02:22:46.278Z,23.24
2017-10-27T02:25:12.028Z,23.26
2017-10-27T02:27:37.779Z,23.19
2017-10-27T02:30:04.145Z,23.31
2017-10-27T02:32:29.908Z,23.21
2017-10-27T02:34:55.693Z,23.24
2017-10-27T02:37:21.447Z,23.24
2017-10-27T02:39:47.204Z,23.26
2017-10-27T02:42:12.953Z,23.25
2017-10-27T02:44:38.707Z,23.23
2017-10-27T02:47:04.458Z,23.24
2017-10-27T02:49:30.206Z,23.19
2017-10-27T02:51:55.965Z,23.20
2017-10-27T02:54:21.707Z,23.23
2017-10-27T02:56:47.460Z,23.24
2017-10-27T02:59:13.219Z,23.33
2017-10-27T03:01:38.977Z,23.34
2017-10-27T03:04:04.728Z,23.23
2017-10-27T03:06:30.471Z,23.25
2017-10-27T03:08:56.232Z,23.29
2017-10-27T03:11:22.012Z,23.36
2017-10-27T03:13:47.772Z,23.31
2017-10-27T03:16:13.522Z,23.29
2017-10-27T03:18:39.315Z,23.35
2017-10-27T03:21:05.069Z,23.26
2017-10-27T03:23:30.811Z,23.26
2017-10-27T03:25:56.555Z,23.23
2017-10-27T03:28:22.362Z,23.26
2017-10-27T03:30:48.152Z,23.27
2017-10-27T03:33:13.964Z,23.24
2017-10-27T03:35:39.700Z,23.28
2017-10-27T03:38:05.451Z,23.32
2017-10-27T03:40:31.203Z,23.36
2017-10-27T03:42:56.984Z,23.17
2017-10-27T03:45:22.749Z,23.26
2017-10-27T03:47:48.544Z,23.29
2017-10-27T03:50:14.299Z,23.20
2017-10-27T03:52:40.105Z,23.16
2017-10-27T03:55:05.853Z,23.14
2017-10-27T03:57:31.756Z,23.15
2017-10-27T03:59:57.548Z,23.25
2017-10-27T04:02:23.296Z,23.30
2017-10-27T04:04:49.070Z,23.28
2017-10-27T04:07:14.845Z,23.29
2017-10-27T04:09:40.596Z,23.31
2017-10-27T04:12:06.334Z,23.37
2017-10-27T04:14:32.085Z,23.30
2017-10-27T04:16:58.526Z,23.30
2017-10-27T04:19:24.274Z,23.35
2017-10-27T04:21:50.016Z,23.24
2017-10-27T04:24:15.806Z,23.29
2017-10-27T04:26:41.592Z,23.33
2017-10-27T04:29:07.352Z,23.32
2017-10-27T04:31:33.148Z,23.29
2017-10-27T04:33:58.893Z,23.39
2017-10-27T04:36:24.653Z,23.23
2017-10-27T04:38:50.402Z,23.27
2017-10-27T04:41:16.151Z,23.23
2017-10-27T04:43:41.919Z,23.27
2017-10-27T04:46:07.668Z,23.25
2017-10-27T04:48:33.457Z,23.27
2017-10-27T04:50:59.269Z,23.26
2017-10-27T04:53:25.019Z,23.27
2017-10-27T04:55:50.768Z,23.17
2017-10-27T04:58:16.508Z,23.23
2017-10-27T05:00:42.289Z,23.26
2017-10-27T05:03:08.971Z,23.24
2017-10-27T05:05:34.719Z,23.22
2017-10-27T05:08:00.476Z,23.25
2017-10-27T05:10:26.226Z,23.21
2017-10-27T05:12:51.971Z,23.24
2017-10-27T05:15:17.802Z,23.20
2017-10-27T05:17:49.673Z,23.15
2017-10-27T05:20:21.544Z,23.15
2017-10-27T05:22:53.544Z,23.25
2017-10-27T05:25:19.284Z,23.17
2017-10-27T05:27:45.026Z,23.34
2017-10-27T05:30:10.773Z,23.29
2017-10-27T05:32:36.516Z,23.28
2017-10-27T05:35:02.273Z,23.17
2017-10-27T05:37:28.247Z,23.22
2017-10-27T05:39:53.995Z,23.21
2017-10-27T05:42:19.740Z,23.24
2017-10-27T05:44:45.532Z,23.20
2017-10-27T05:47:11.279Z,23.24
2017-10-27T05:49:37.027Z,23.32
2017-10-27T05:52:02.771Z,23.13
2017-10-27T05:54:28.564Z,23.15
2017-10-27T05:56:54.308Z,23.24
2017-10-27T05:59:20.176Z,23.23
2017-10-27T06:01:45.932Z,23.27
2017-10-27T06:04:11.679Z,23.30
2017-10-27T06:06:44.432Z,23.19
2017-10-27T06:09:10.189Z,23.13
2017-10-27T06:11:35.944Z,23.15
2017-10-27T06:14:01.710Z,23.13
2017-10-27T06:16:27.456Z,23.17
2017-10-27T06:18:53.215Z,23.22
2017-10-27T06:21:18.971Z,23.17
2017-10-27T06:23:44.837Z,23.21
2017-10-27T06:26:11.720Z,23.17
2017-10-27T06:28:37.472Z,23.13
2017-10-27T06:31:03.219Z,23.17
2017-10-27T06:33:28.978Z,23.23
2017-10-27T06:35:54.747Z,23.26
2017-10-27T06:38:20.696Z,23.27
2017-10-27T06:40:46.447Z,23.16
2017-10-27T06:43:12.188Z,23.11
2017-10-27T06:45:37.940Z,23.15
2017-10-27T06:48:03.691Z,23.19
2017-10-27T06:50:29.611Z,23.21
2017-10-27T06:52:55.364Z,23.19
2017-10-27T06:55:21.245Z,23.27
2017-10-27T06:57:46.997Z,23.34
2017-10-27T07:00:12.748Z,23.32
2017-10-27T07:02:38.505Z,23.17
2017-10-27T07:05:04.256Z,23.18
2017-10-27T07:07:30.239Z,23.27
2017-10-27T07:09:55.992Z,23.34
2017-10-27T07:12:22.594Z,23.20
2017-10-27T07:14:48.381Z,23.20
2017-10-27T07:17:14.160Z,23.19
2017-10-27T07:19:39.905Z,23.19
2017-10-27T07:22:05.880Z,23.18
2017-10-27T07:24:31.631Z,23.25
2017-10-27T07:26:57.420Z,23.36
2017-10-27T07:29:23.208Z,23.32
2017-10-27T07:31:49.060Z,23.33
2017-10-27T07:34:14.814Z,23.33
2017-10-27T07:36:40.564Z,23.24
2017-10-27T07:39:06.305Z,23.26
2017-10-27T07:41:32.060Z,23.26
2017-10-27T07:43:58.961Z,23.25
2017-10-27T07:46:30.340Z,23.32
2017-10-27T07:48:56.105Z,23.14
2017-10-27T07:51:22.508Z,23.18
2017-10-27T07:53:48.264Z,23.22
2017-10-27T07:56:14.029Z,23.36
2017-10-27T07:58:39.822Z,23.35
2017-10-27T08:01:05.759Z,23.25
2017-10-27T08:03:31.548Z,23.16
2017-10-27T08:05:57.329Z,23.24
2017-10-27T08:08:23.156Z,23.35
2017-10-27T08:10:48.927Z,23.35
2017-10-27T08:13:14.679Z,23.31
2017-10-27T08:15:40.468Z,23.36
2017-10-27T08:18:06.227Z,23.35
2017-10-27T08:20:32.011Z,23.22
2017-10-27T08:22:57.761Z,23.26
2017-10-27T08:25:23.569Z,23.31
2017-10-27T08:27:49.546Z,23.34
2017-10-27T08:30:15.368Z,23.24
2017-10-27T08:32:41.133Z,23.37
2017-10-27T08:35:06.884Z,23.37
2017-10-27T08:37:32.634Z,23.35
2017-10-27T08:39:58.384Z,23.27
2017-10-27T08:42:25.119Z,23.27
2017-10-27T08:44:50.880Z,23.32
2017-10-27T08:47:16.631Z,23.30
2017-10-27T08:49:42.384Z,23.31
2017-10-27T08:52:08.172Z,23.28
2017-10-27T08:54:33.932Z,23.25
2017-10-27T08:56:59.685Z,23.22
2017-10-27T08:59:25.615Z,23.22
2017-10-27T09:01:51.507Z,23.18
2017-10-27T09:04:17.267Z,23.26
2017-10-27T09:06:45.935Z,23.31
2017-10-27T09:09:11.684Z,23.45
2017-10-27T09:11:37.444Z,23.60
2017-10-27T09:14:03.236Z,23.68
2017-10-27T09:16:28.984Z,23.77
2017-10-27T09:18:54.734Z,23.78
2017-10-27T09:21:20.486Z,23.78
2017-10-27T09:23:47.591Z,23.68
2017-10-27T09:26:13.368Z,23.66
2017-10-27T09:28:39.132Z,23.61
2017-10-27T09:31:04.899Z,23.46
2017-10-27T09:33:30.650Z,23.43
2017-10-27T09:35:56.445Z,23.48
2017-10-27T09:38:22.309Z,23.46
2017-10-27T09:40:48.059Z,23.55
2017-10-27T09:43:13.804Z,23.50
2017-10-27T09:45:39.563Z,23.53
2017-10-27T09:48:05.315Z,23.48
2017-10-27T09:50:31.069Z,23.46
2017-10-27T09:52:56.836Z,23.49
2017-10-27T09:55:23.304Z,23.40
2017-10-27T09:57:49.068Z,23.45
2017-10-27T10:00:14.883Z,23.32
2017-10-27T10:02:40.723Z,23.39
2017-10-27T10:05:06.495Z,23.32
2017-10-27T10:07:32.240Z,23.36
2017-10-27T10:09:58.056Z,23.39
2017-10-27T10:12:23.844Z,23.36
2017-10-27T10:14:49.587Z,23.38
2017-10-27T10:17:15.350Z,23.36
2017-10-27T10:19:41.108Z,23.31
2017-10-27T10:22:06.971Z,23.35
2017-10-27T10:24:32.883Z,23.33
2017-10-27T10:26:58.636Z,23.28
2017-10-27T10:29:24.388Z,23.28
2017-10-27T10:31:50.216Z,23.36
2017-10-27T10:34:15.964Z,23.37
2017-10-27T10:36:41.711Z,23.39
2017-10-27T10:39:07.464Z,23.39
2017-10-27T10:41:33.215Z,23.38
2017-10-27T10:43:58.964Z,23.37
2017-10-27T10:46:24.723Z,23.36
2017-10-27T10:48:50.528Z,23.40
2017-10-27T10:51:16.288Z,23.42
2017-10-27T10:53:42.054Z,23.33
2017-10-27T10:56:07.801Z,23.32
2017-10-27T10:58:33.549Z,23.36
2017-10-27T11:00:59.323Z,23.48
2017-10-27T11:03:26.084Z,23.49
2017-10-27T11:05:51.864Z,23.39
2017-10-27T11:08:17.611Z,23.40
2017-10-27T11:10:43.394Z,23.42
2017-10-27T11:13:09.140Z,23.44
2017-10-27T11:15:34.883Z,23.50
2017-10-27T11:18:00.677Z,23.43
2017-10-27T11:20:26.483Z,23.52
2017-10-27T11:22:52.259Z,23.66
2017-10-27T11:25:18.048Z,23.70
2017-10-27T11:27:43.794Z,23.76
2017-10-27T11:30:09.604Z,23.69
2017-10-27T11:32:35.372Z,23.72
2017-10-27T11:35:01.151Z,23.63
2017-10-27T11:37:26.915Z,23.53
2017-10-27T11:39:52.663Z,23.61
2017-10-27T11:42:19.439Z,23.72
2017-10-27T11:44:45.187Z,23.68
2017-10-27T11:47:10.936Z,23.62
2017-10-27T11:49:36.692Z,23.66
2017-10-27T11:52:02.436Z,23.75
2017-10-27T11:54:28.188Z,23.70
2017-10-27T11:56:53.928Z,23.76
2017-10-27T11:59:19.721Z,23.67
2017-10-27T12:01:45.475Z,23.67
2017-10-27T12:04:11.214Z,23.63
2017-10-27T12:06:37.019Z,23.51
2017-10-27T12:09:02.776Z,23.45
2017-10-27T12:11:28.527Z,23.45
2017-10-27T12:13:54.280Z,23.51
2017-10-27T12:16:20.028Z,23.50
2017-10-27T12:18:45.785Z,23.58
2017-10-27T12:21:11.535Z,23.52
2017-10-27T12:23:37.843Z,23.59
2017-10-27T12:26:03.611Z,23.48
2017-10-27T12:28:29.363Z,23.53
2017-10-27T12:30:55.112Z,23.53
2017-10-27T12:33:20.870Z,23.62
2017-10-27T12:35:46.623Z,23.66
2017-10-27T12:38:12.417Z,23.50
2017-10-27T12:40:38.164Z,23.62
2017-10-27T12:43:03.917Z,23.55
2017-10-27T12:45:29.668Z,23.57
2017-10-27T12:47:55.423Z,23.60
2017-10-27T12:50:21.173Z,23.59
2017-10-27T12:52:46.966Z,23.56
2017-10-27T12:55:12.726Z,23.46
2017-10-27T12:57:38.485Z,23.52
2017-10-27T13:00:04.228Z,23.46
2017-10-27T13:02:29.981Z,23.44
2017-10-27T13:04:55.736Z,23.46
2017-10-27T13:07:21.496Z,23.46
2017-10-27T13:09:47.279Z,23.50
2017-10-27T13:12:13.053Z,23.47
2017-10-27T13:14:38.794Z,23.48
2017-10-27T13:17:04.552Z,23.50
2017-10-27T13:19:30.315Z,23.52
2017-10-27T13:21:56.096Z,23.55
2017-10-27T13:24:21.904Z,23.50
2017-10-27T13:26:47.691Z,23.48
2017-10-27T13:29:13.452Z,23.51
2017-10-27T13:31:39.195Z,23.50
2017-10-27T13:34:04.987Z,23.53
2017-10-27T13:36:30.749Z,23.44
2017-10-27T13:38:56.534Z,23.45
2017-10-27T13:41:22.290Z,23.43
2017-10-27T13:43:48.725Z,23.52
2017-10-27T13:46:14.476Z,23.41
2017-10-27T13:48:40.227Z,23.46
2017-10-27T13:51:05.985Z,23.34
2017-10-27T13:53:31.758Z,23.33
2017-10-27T13:55:57.548Z,23.34
2017-10-27T13:58:23.307Z,23.34
2017-10-27T14:00:49.079Z,23.34
2017-10-27T14:03:14.839Z,23.40
2017-10-27T14:05:40.604Z,23.40
2017-10-27T14:08:06.349Z,23.33
2017-10-27T14:10:32.143Z,23.32
2017-10-27T14:12:57.899Z,23.35
2017-10-27T14:15:23.647Z,23.27
2017-10-27T14:17:50.093Z,23.38
2017-10-27T14:20:15.876Z,23.39
2017-10-27T14:22:41.679Z,23.33
2017-10-27T14:25:07.491Z,23.34
2017-10-27T14:27:33.239Z,23.27
2017-10-27T14:29:58.988Z,23.39
2017-10-27T14:32:24.729Z,23.35
2017-10-27T14:34:50.475Z,23.37
2017-10-27T14:37:16.268Z,23.30
2017-10-27T14:39:42.031Z,23.22
2017-10-27T14:42:07.781Z,23.25
2017-10-27T14:44:33.534Z,23.41
2017-10-27T14:46:59.291Z,23.53
2017-10-27T14:49:25.044Z,23.46
2017-10-27T14:51:50.793Z,23.33
2017-10-27T14:54:16.540Z,23.30
2017-10-27T14:56:42.291Z,23.23
2017-10-27T14:59:08.076Z,23.01
2017-10-27T15:01:33.971Z,23.05
2017-10-27T15:03:59.758Z,23.10
2017-10-27T15:06:25.513Z,22.96
2017-10-27T15:08:51.302Z,23.07
2017-10-27T15:11:17.058Z,22.99
2017-10-27T15:13:42.835Z,22.78
2017-10-27T15:16:08.629Z,23.07
2017-10-27T15:18:34.700Z,22.92
2017-10-27T15:21:00.519Z,23.01
2017-10-27T15:23:26.269Z,23.08
2017-10-27T15:25:52.020Z,23.13
2017-10-27T15:28:17.827Z,23.20
2017-10-27T15:30:43.580Z,23.14
2017-10-27T15:33:09.320Z,23.14
2017-10-27T15:35:35.078Z,23.30
2017-10-27T15:38:00.968Z,23.19
2017-10-27T15:40:26.760Z,23.17
2017-10-27T15:42:52.556Z,23.20
2017-10-27T15:45:18.317Z,23.19
2017-10-27T15:47:44.062Z,23.21
2017-10-27T15:50:09.811Z,23.22
2017-10-27T15:52:35.671Z,23.14
2017-10-27T15:55:01.420Z,23.18
2017-10-27T15:57:27.181Z,23.18
2017-10-27T15:59:52.967Z,23.23
2017-10-27T16:02:18.720Z,23.17
2017-10-27T16:04:44.461Z,23.11
2017-10-27T16:07:10.213Z,23.11
2017-10-27T16:09:35.955Z,23.12
2017-10-27T16:12:01.775Z,23.11
2017-10-27T16:14:27.526Z,23.20
2017-10-27T16:16:53.277Z,23.19
2017-10-27T16:19:19.030Z,23.18
2017-10-27T16:21:44.904Z,23.18
2017-10-27T16:24:10.672Z,23.23
2017-10-27T16:26:36.456Z,23.21
2017-10-27T16:29:02.226Z,23.08
2017-10-27T16:31:27.977Z,23.10
2017-10-27T16:33:53.755Z,23.18
2017-10-27T16:36:19.557Z,23.22
2017-10-27T16:38:45.300Z,23.16
2017-10-27T16:41:11.060Z,23.15
2017-10-27T16:43:36.819Z,23.16
2017-10-27T16:46:02.567Z,23.11
2017-10-27T16:48:28.317Z,23.19
2017-10-27T16:50:55.119Z,23.06
2017-10-27T16:53:20.864Z,23.18
2017-10-27T16:55:46.654Z,23.21
2017-10-27T16:58:12.401Z,23.16
2017-10-27T17:00:38.172Z,23.23
2017-10-27T17:03:03.957Z,23.15
2017-10-27T17:05:29.712Z,23.14
2017-10-27T17:07:55.518Z,23.07
2017-10-27T17:10:21.272Z,23.14
2017-10-27T17:12:47.030Z,23.12
2017-10-27T17:15:12.832Z,23.08
2017-10-27T17:17:38.627Z,23.11
2017-10-27T17:20:04.376Z,23.10
2017-10-27T17:22:30.300Z,23.09
2017-10-27T17:24:56.058Z,23.07
2017-10-27T17:27:21.929Z,23.07
2017-10-27T17:29:47.728Z,23.13
2017-10-27T17:32:13.494Z,23.13
2017-10-27T17:34:39.276Z,23.08
2017-10-27T17:37:05.039Z,22.91
2017-10-27T17:39:30.839Z,22.98
2017-10-27T17:41:56.780Z,23.08
2017-10-27T17:44:22.627Z,23.13
2017-10-27T17:46:48.496Z,23.10
2017-10-27T17:49:14.270Z,23.12
2017-10-27T17:51:40.024Z,23.14
2017-10-27T17:54:05.783Z,23.08
2017-10-27T17:56:32.731Z,23.20
2017-10-27T17:58:58.485Z,23.11
2017-10-27T18:01:24.235Z,22.98
2017-10-27T18:03:49.995Z,23.02
2017-10-27T18:06:16.879Z,23.00
2017-10-27T18:08:42.642Z,23.03
2017-10-27T18:11:08.386Z,22.99
2017-10-27T18:13:34.159Z,23.00
2017-10-27T18:15:59.915Z,22.98
2017-10-27T18:18:27.723Z,22.93
2017-10-27T18:20:53.475Z,22.94
2017-10-27T18:23:20.375Z,22.89
2017-10-27T18:25:46.551Z,22.83
2017-10-27T18:28:12.300Z,22.89
2017-10-27T18:30:38.052Z,22.86
2017-10-27T18:33:03.800Z,22.87
2017-10-27T18:35:29.555Z,22.84
2017-10-27T18:37:55.317Z,22.84
2017-10-27T18:40:21.092Z,22.92
2017-10-27T18:42:46.853Z,22.88
2017-10-27T18:45:13.069Z,22.79
2017-10-27T18:47:38.852Z,22.84
2017-10-27T18:50:04.634Z,22.87
2017-10-27T18:52:30.528Z,22.85
2017-10-27T18:54:56.288Z,22.87
2017-10-27T18:57:22.164Z,22.85
2017-10-27T18:59:47.931Z,22.85
2017-10-27T19:02:13.719Z,22.95
2017-10-27T19:04:39.485Z,22.96
2017-10-27T19:07:05.283Z,22.93
2017-10-27T19:09:31.033Z,22.86
2017-10-27T19:11:57.657Z,22.81
2017-10-27T19:14:23.428Z,22.83
2017-10-27T19:16:49.646Z,22.85
2017-10-27T19:19:15.940Z,22.81
2017-10-27T19:21:41.684Z,22.85
2017-10-27T19:24:07.829Z,22.83
2017-10-27T19:26:33.608Z,22.82
2017-10-27T19:28:59.367Z,22.81
2017-10-27T19:31:25.432Z,22.85
2017-10-27T19:33:51.201Z,22.71
2017-10-27T19:36:17.160Z,22.80
2017-10-27T19:38:44.310Z,22.82
2017-10-27T19:41:10.097Z,22.84
2017-10-27T19:43:36.059Z,22.83
2017-10-27T19:46:01.810Z,22.83
2017-10-27T19:48:27.549Z,22.83
2017-10-27T19:50:53.295Z,22.79
2017-10-27T19:53:19.952Z,22.78
2017-10-27T19:55:45.897Z,22.84
2017-10-27T19:58:11.652Z,22.82
2017-10-27T20:00:37.459Z,22.85
2017-10-27T20:03:03.206Z,22.87
2017-10-27T20:05:35.107Z,22.85
2017-10-27T20:08:00.964Z,22.82
2017-10-27T20:10:26.709Z,22.84
2017-10-27T20:12:52.471Z,22.84
2017-10-27T20:15:18.739Z,22.85
2017-10-27T20:17:44.491Z,22.80
2017-10-27T20:20:10.261Z,22.79
2017-10-27T20:22:36.099Z,22.85
2017-10-27T20:25:01.845Z,22.85
2017-10-27T20:27:28.016Z,22.73
2017-10-27T20:29:53.829Z,22.81
2017-10-27T20:32:19.589Z,22.77
2017-10-27T20:34:45.350Z,22.84
2017-10-27T20:37:11.576Z,22.85
2017-10-27T20:39:37.741Z,22.85
2017-10-27T20:42:03.508Z,22.70
2017-10-27T20:44:29.252Z,22.69
2017-10-27T20:46:55.034Z,22.78
2017-10-27T20:49:20.772Z,22.86
2017-10-27T20:51:46.513Z,23.01
2017-10-27T20:54:12.653Z,22.97
2017-10-27T20:56:38.796Z,23.02
2017-10-27T20:59:04.720Z,22.97
2017-10-27T21:01:30.476Z,23.06
2017-10-27T21:03:56.356Z,22.98
2017-10-27T21:06:25.472Z,22.93
2017-10-27T21:08:51.235Z,22.94
2017-10-27T21:11:16.999Z,22.91
2017-10-27T21:13:42.813Z,22.89
2017-10-27T21:16:08.561Z,22.93
2017-10-27T21:18:34.311Z,22.89
2017-10-27T21:21:00.064Z,22.88
2017-10-27T21:23:25.819Z,22.88
2017-10-27T21:25:51.600Z,22.85
2017-10-27T21:28:18.665Z,22.87
2017-10-27T21:30:44.428Z,22.82
2017-10-27T21:33:10.172Z,22.91
2017-10-27T21:35:35.966Z,22.85
2017-10-27T21:38:01.712Z,22.83
2017-10-27T21:40:27.518Z,22.91
2017-10-27T21:42:53.269Z,22.90
2017-10-27T21:45:19.016Z,22.87
2017-10-27T21:47:44.898Z,22.91
2017-10-27T21:50:10.651Z,22.93
2017-10-27T21:52:36.475Z,22.91
2017-10-27T21:55:02.221Z,22.89
2017-10-27T21:57:27.971Z,22.91
2017-10-27T21:59:53.718Z,22.85
2017-10-27T22:02:19.467Z,22.88
2017-10-27T22:04:45.212Z,22.83
2017-10-27T22:07:10.961Z,22.91
2017-10-27T22:09:36.716Z,22.90
2017-10-27T22:12:02.465Z,22.87
2017-10-27T22:14:28.211Z,22.95
2017-10-27T22:16:53.963Z,22.90
2017-10-27T22:19:19.697Z,22.97
2017-10-27T22:21:45.584Z,22.93
2017-10-27T22:24:11.323Z,22.89
2017-10-27T22:26:37.063Z,22.86
2017-10-27T22:29:02.804Z,22.81
2017-10-27T22:31:28.661Z,22.85
2017-10-27T22:33:54.453Z,22.86
2017-10-27T22:36:20.236Z,22.91
2017-10-27T22:38:45.975Z,22.96
2017-10-27T22:41:11.711Z,23.01
2017-10-27T22:43:37.473Z,22.96
2017-10-27T22:46:03.269Z,23.06
2017-10-27T22:48:29.016Z,23.08
2017-10-27T22:50:54.759Z,22.87
2017-10-27T22:53:20.532Z,22.90
2017-10-27T22:55:46.279Z,22.92
2017-10-27T22:58:12.063Z,23.10
2017-10-27T23:00:37.960Z,23.05
2017-10-27T23:03:03.728Z,23.02
2017-10-27T23:05:29.484Z,22.95
2017-10-27T23:08:01.487Z,22.96
2017-10-27T23:10:27.231Z,22.93
2017-10-27T23:12:52.983Z,23.02
2017-10-27T23:15:18.734Z,22.91
2017-10-27T23:17:46.692Z,22.89
2017-10-27T23:20:12.460Z,22.76
2017-10-27T23:22:38.299Z,22.92
2017-10-27T23:25:04.097Z,22.95
2017-10-27T23:27:29.839Z,23.03
2017-10-27T23:29:55.575Z,23.03
2017-10-27T23:32:21.334Z,22.94
2017-10-27T23:34:47.067Z,22.89
2017-10-27T23:37:12.824Z,22.95
2017-10-27T23:39:39.612Z,22.97
2017-10-27T23:42:06.339Z,22.84
2017-10-27T23:44:32.084Z,22.90
2017-10-27T23:46:57.975Z,22.93
2017-10-27T23:49:23.792Z,22.99
2017-10-27T23:51:49.527Z,22.99
2017-10-27T23:54:15.267Z,22.97
2017-10-27T23:56:41.024Z,23.04
2017-10-27T23:59:06.768Z,23.06
